sensor_id;sensor_type;location;lat;lon;timestamp;pressure;altitude;pressure_sealevel;temperature;humidity
12973;BME280;6551;51.056;9.466;2023-03-25T00:01:14;96483.91;;;12.35;71.33
12973;BME280;6551;51.056;9.466;2023-03-25T00:03:43;96485.94;;;12.64;70.50
12973;BME280;6551;51.056;9.466;2023-03-25T00:06:15;96474.81;;;12.36;69.41
12973;BME280;6551;51.056;9.466;2023-03-25T00:08:41;96488.00;;;12.05;71.04
12973;BME280;6551;51.056;9.466;2023-03-25T00:11:07;96486.41;;;12.51;70.94
12973;BME280;6551;51.056;9.466;2023-03-25T00:13:33;96491.03;;;12.66;70.05
12973;BME280;6551;51.056;9.466;2023-03-25T00:16:00;96483.28;;;12.74;69.46
12973;BME280;6551;51.056;9.466;2023-03-25T00:18:29;96482.25;;;12.85;68.78
12973;BME280;6551;51.056;9.466;2023-03-25T00:21:00;96478.03;;;12.95;68.36
12973;BME280;6551;51.056;9.466;2023-03-25T00:23:28;96489.09;;;13.18;67.67
12973;BME280;6551;51.056;9.466;2023-03-25T00:25:56;96481.53;;;13.00;67.46
12973;BME280;6551;51.056;9.466;2023-03-25T00:28:31;96480.06;;;12.67;68.93
12973;BME280;6551;51.056;9.466;2023-03-25T00:31:05;96473.88;;;12.52;69.23
12973;BME280;6551;51.056;9.466;2023-03-25T00:33:31;96461.63;;;12.14;70.29
12973;BME280;6551;51.056;9.466;2023-03-25T00:35:58;96476.44;;;12.31;70.19
12973;BME280;6551;51.056;9.466;2023-03-25T00:38:28;96471.56;;;12.23;70.07
12973;BME280;6551;51.056;9.466;2023-03-25T00:43:54;96462.13;;;12.58;69.64
12973;BME280;6551;51.056;9.466;2023-03-25T00:46:23;96473.72;;;12.88;68.78
12973;BME280;6551;51.056;9.466;2023-03-25T00:48:51;96451.84;;;12.91;67.97
12973;BME280;6551;51.056;9.466;2023-03-25T00:51:19;96469.78;;;13.01;68.06
12973;BME280;6551;51.056;9.466;2023-03-25T00:53:53;96462.00;;;12.95;67.67
12973;BME280;6551;51.056;9.466;2023-03-25T00:56:21;96488.50;;;13.01;67.45
12973;BME280;6551;51.056;9.466;2023-03-25T00:58:49;96473.91;;;12.62;69.56
12973;BME280;6551;51.056;9.466;2023-03-25T01:01:20;96473.25;;;12.97;69.39
12973;BME280;6551;51.056;9.466;2023-03-25T01:03:53;96464.66;;;12.27;70.08
12973;BME280;6551;51.056;9.466;2023-03-25T01:06:33;96472.09;;;12.20;70.00
12973;BME280;6551;51.056;9.466;2023-03-25T01:09:06;96474.38;;;12.44;70.44
12973;BME280;6551;51.056;9.466;2023-03-25T01:11:33;96467.78;;;12.66;70.09
12973;BME280;6551;51.056;9.466;2023-03-25T01:14:04;96464.59;;;12.74;69.44
12973;BME280;6551;51.056;9.466;2023-03-25T01:16:30;96460.25;;;12.58;69.39
12973;BME280;6551;51.056;9.466;2023-03-25T01:18:56;96464.69;;;13.00;68.71
12973;BME280;6551;51.056;9.466;2023-03-25T01:21:22;96466.41;;;13.26;68.37
12973;BME280;6551;51.056;9.466;2023-03-25T01:23:49;96468.63;;;12.77;68.76
12973;BME280;6551;51.056;9.466;2023-03-25T01:26:16;96460.66;;;12.87;69.04
12973;BME280;6551;51.056;9.466;2023-03-25T01:28:43;96457.66;;;12.68;69.66
12973;BME280;6551;51.056;9.466;2023-03-25T01:31:13;96461.47;;;12.36;69.62
12973;BME280;6551;51.056;9.466;2023-03-25T01:33:39;96455.59;;;12.28;70.43
12973;BME280;6551;51.056;9.466;2023-03-25T01:36:05;96458.06;;;12.40;70.79
12973;BME280;6551;51.056;9.466;2023-03-25T01:38:39;96466.03;;;12.35;70.01
12973;BME280;6551;51.056;9.466;2023-03-25T01:41:06;96457.75;;;12.31;70.53
12973;BME280;6551;51.056;9.466;2023-03-25T01:43:33;96460.41;;;12.31;70.07
12973;BME280;6551;51.056;9.466;2023-03-25T01:45:59;96471.63;;;12.33;70.44
12973;BME280;6551;51.056;9.466;2023-03-25T01:48:35;96467.69;;;11.99;70.85
12973;BME280;6551;51.056;9.466;2023-03-25T01:51:11;96455.06;;;12.31;70.66
12973;BME280;6551;51.056;9.466;2023-03-25T01:53:39;96463.13;;;12.42;69.45
12973;BME280;6551;51.056;9.466;2023-03-25T01:56:06;96466.44;;;12.64;69.13
12973;BME280;6551;51.056;9.466;2023-03-25T01:58:35;96455.19;;;12.52;69.66
12973;BME280;6551;51.056;9.466;2023-03-25T02:01:01;96449.88;;;12.67;68.94
12973;BME280;6551;51.056;9.466;2023-03-25T02:03:29;96455.69;;;12.49;69.42
12973;BME280;6551;51.056;9.466;2023-03-25T02:06:06;96456.00;;;12.57;69.13
12973;BME280;6551;51.056;9.466;2023-03-25T02:08:39;96460.25;;;12.58;69.39
12973;BME280;6551;51.056;9.466;2023-03-25T02:11:07;96450.25;;;12.28;69.23
12973;BME280;6551;51.056;9.466;2023-03-25T02:13:37;96438.00;;;12.32;70.10
12973;BME280;6551;51.056;9.466;2023-03-25T02:28:34;96441.38;;;12.75;67.36
12973;BME280;6551;51.056;9.466;2023-03-25T02:31:31;96450.16;;;12.65;67.21
12973;BME280;6551;51.056;9.466;2023-03-25T02:34:20;96453.38;;;12.77;67.30
12973;BME280;6551;51.056;9.466;2023-03-25T02:37:33;96450.25;;;11.87;68.49
12973;BME280;6551;51.056;9.466;2023-03-25T02:40:18;96454.78;;;12.28;68.64
12973;BME280;6551;51.056;9.466;2023-03-25T02:43:04;96461.88;;;12.59;67.37
12973;BME280;6551;51.056;9.466;2023-03-25T02:45:41;96456.47;;;12.44;67.54
12973;BME280;6551;51.056;9.466;2023-03-25T02:48:22;96460.06;;;12.75;67.11
12973;BME280;6551;51.056;9.466;2023-03-25T02:50:55;96459.59;;;12.93;66.56
12973;BME280;6551;51.056;9.466;2023-03-25T02:53:27;96450.78;;;12.30;66.93
12973;BME280;6551;51.056;9.466;2023-03-25T02:56:01;96438.22;;;12.21;68.60
12973;BME280;6551;51.056;9.466;2023-03-25T02:58:31;96437.81;;;12.02;68.81
12973;BME280;6551;51.056;9.466;2023-03-25T03:00:57;96439.03;;;12.26;68.36
12973;BME280;6551;51.056;9.466;2023-03-25T03:03:26;96434.59;;;12.00;67.92
12973;BME280;6551;51.056;9.466;2023-03-25T03:05:56;96429.94;;;11.81;68.78
12973;BME280;6551;51.056;9.466;2023-03-25T03:11:26;96435.56;;;11.84;69.18
12973;BME280;6551;51.056;9.466;2023-03-25T03:20:02;96421.69;;;12.29;67.54
12973;BME280;6551;51.056;9.466;2023-03-25T03:23:19;96414.25;;;11.89;67.71
12973;BME280;6551;51.056;9.466;2023-03-25T03:26:24;96421.28;;;12.05;68.08
12973;BME280;6551;51.056;9.466;2023-03-25T03:29:12;96429.28;;;12.05;68.35
12973;BME280;6551;51.056;9.466;2023-03-25T03:34:42;96428.25;;;12.06;68.12
12973;BME280;6551;51.056;9.466;2023-03-25T03:37:21;96423.00;;;12.21;67.85
12973;BME280;6551;51.056;9.466;2023-03-25T03:39:50;96423.63;;;11.97;67.88
12973;BME280;6551;51.056;9.466;2023-03-25T03:42:51;96419.91;;;11.93;68.32
12973;BME280;6551;51.056;9.466;2023-03-25T03:48:00;96431.91;;;11.95;68.68
12973;BME280;6551;51.056;9.466;2023-03-25T03:50:35;96427.34;;;11.91;68.74
12973;BME280;6551;51.056;9.466;2023-03-25T03:53:17;96429.72;;;11.87;68.54
12973;BME280;6551;51.056;9.466;2023-03-25T03:55:56;96420.25;;;12.06;68.91
12973;BME280;6551;51.056;9.466;2023-03-25T03:58:36;96428.72;;;11.93;68.24
12973;BME280;6551;51.056;9.466;2023-03-25T04:01:20;96435.63;;;11.94;68.33
12973;BME280;6551;51.056;9.466;2023-03-25T04:04:14;96430.56;;;11.61;68.86
12973;BME280;6551;51.056;9.466;2023-03-25T04:12:28;96426.69;;;11.73;69.19
12973;BME280;6551;51.056;9.466;2023-03-25T04:14:59;96443.53;;;11.79;69.11
12973;BME280;6551;51.056;9.466;2023-03-25T04:17:25;96434.63;;;12.05;68.26
12973;BME280;6551;51.056;9.466;2023-03-25T04:19:55;96434.06;;;11.98;68.43
12973;BME280;6551;51.056;9.466;2023-03-25T04:22:21;96437.44;;;11.84;68.60
12973;BME280;6551;51.056;9.466;2023-03-25T04:24:48;96436.06;;;11.76;69.09
12973;BME280;6551;51.056;9.466;2023-03-25T04:27:20;96430.19;;;11.74;69.86
12973;BME280;6551;51.056;9.466;2023-03-25T04:29:49;96434.28;;;11.55;70.34
12973;BME280;6551;51.056;9.466;2023-03-25T04:32:19;96438.97;;;11.43;70.30
12973;BME280;6551;51.056;9.466;2023-03-25T04:34:45;96428.88;;;11.50;71.42
12973;BME280;6551;51.056;9.466;2023-03-25T04:37:12;96430.78;;;11.54;71.33
12973;BME280;6551;51.056;9.466;2023-03-25T04:39:38;96436.03;;;11.44;72.07
12973;BME280;6551;51.056;9.466;2023-03-25T04:42:04;96435.63;;;11.57;72.00
12973;BME280;6551;51.056;9.466;2023-03-25T04:44:30;96436.50;;;11.36;72.40
12973;BME280;6551;51.056;9.466;2023-03-25T04:47:06;96427.66;;;11.62;71.60
12973;BME280;6551;51.056;9.466;2023-03-25T04:49:36;96433.16;;;11.51;70.92
12973;BME280;6551;51.056;9.466;2023-03-25T04:52:01;96436.34;;;11.80;71.00
12973;BME280;6551;51.056;9.466;2023-03-25T04:54:28;96429.38;;;11.47;70.55
12973;BME280;6551;51.056;9.466;2023-03-25T04:56:54;96425.59;;;11.38;71.98
12973;BME280;6551;51.056;9.466;2023-03-25T04:59:20;96435.53;;;11.47;71.91
12973;BME280;6551;51.056;9.466;2023-03-25T05:01:49;96428.59;;;11.46;71.99
12973;BME280;6551;51.056;9.466;2023-03-25T05:04:16;96424.28;;;11.40;71.23
12973;BME280;6551;51.056;9.466;2023-03-25T05:06:46;96419.44;;;11.37;71.42
12973;BME280;6551;51.056;9.466;2023-03-25T05:09:16;96409.72;;;10.94;71.66
12973;BME280;6551;51.056;9.466;2023-03-25T05:11:44;96424.25;;;11.08;72.30
12973;BME280;6551;51.056;9.466;2023-03-25T05:14:12;96427.25;;;11.17;72.27
12973;BME280;6551;51.056;9.466;2023-03-25T05:16:38;96415.22;;;11.41;72.61
12973;BME280;6551;51.056;9.466;2023-03-25T05:19:05;96428.34;;;11.16;72.08
12973;BME280;6551;51.056;9.466;2023-03-25T05:21:33;96431.94;;;11.32;72.36
12973;BME280;6551;51.056;9.466;2023-03-25T05:24:01;96424.97;;;10.99;73.28
12973;BME280;6551;51.056;9.466;2023-03-25T05:26:27;96450.94;;;11.40;72.99
12973;BME280;6551;51.056;9.466;2023-03-25T05:29:04;96433.97;;;11.51;71.76
12973;BME280;6551;51.056;9.466;2023-03-25T05:31:31;96433.03;;;11.67;71.94
12973;BME280;6551;51.056;9.466;2023-03-25T05:33:57;96442.09;;;12.03;70.75
12973;BME280;6551;51.056;9.466;2023-03-25T05:36:23;96452.34;;;11.53;71.35
12973;BME280;6551;51.056;9.466;2023-03-25T05:38:54;96447.84;;;11.53;71.59
12973;BME280;6551;51.056;9.466;2023-03-25T05:41:21;96466.25;;;11.28;72.61
12973;BME280;6551;51.056;9.466;2023-03-25T05:43:58;96466.88;;;11.08;73.91
12973;BME280;6551;51.056;9.466;2023-03-25T05:46:26;96470.66;;;11.12;74.36
12973;BME280;6551;51.056;9.466;2023-03-25T05:48:54;96469.97;;;11.54;74.18
12973;BME280;6551;51.056;9.466;2023-03-25T05:51:24;96471.13;;;11.63;73.51
12973;BME280;6551;51.056;9.466;2023-03-25T05:53:50;96474.56;;;11.63;73.09
12973;BME280;6551;51.056;9.466;2023-03-25T05:56:19;96481.34;;;11.71;73.09
12973;BME280;6551;51.056;9.466;2023-03-25T05:58:48;96474.94;;;11.72;72.41
12973;BME280;6551;51.056;9.466;2023-03-25T06:01:18;96485.25;;;11.95;72.10
12973;BME280;6551;51.056;9.466;2023-03-25T06:03:45;96493.59;;;12.04;72.03
12973;BME280;6551;51.056;9.466;2023-03-25T06:06:12;96486.25;;;12.26;71.26
12973;BME280;6551;51.056;9.466;2023-03-25T06:08:42;96489.50;;;12.33;69.95
12973;BME280;6551;51.056;9.466;2023-03-25T06:11:08;96495.66;;;12.33;69.94
12973;BME280;6551;51.056;9.466;2023-03-25T06:13:35;96491.13;;;12.39;69.03
12973;BME280;6551;51.056;9.466;2023-03-25T06:16:07;96483.75;;;12.51;68.88
12973;BME280;6551;51.056;9.466;2023-03-25T06:18:38;96500.91;;;12.70;68.69
12973;BME280;6551;51.056;9.466;2023-03-25T06:21:04;96487.09;;;12.31;69.10
12973;BME280;6551;51.056;9.466;2023-03-25T06:23:30;96491.91;;;12.86;68.49
12973;BME280;6551;51.056;9.466;2023-03-25T06:26:00;96500.97;;;12.85;68.15
12973;BME280;6551;51.056;9.466;2023-03-25T06:28:26;96487.97;;;12.47;68.21
12973;BME280;6551;51.056;9.466;2023-03-25T06:30:52;96497.94;;;12.15;69.10
12973;BME280;6551;51.056;9.466;2023-03-25T06:33:17;96487.66;;;11.97;69.91
12973;BME280;6551;51.056;9.466;2023-03-25T06:35:47;96505.50;;;11.91;70.52
12973;BME280;6551;51.056;9.466;2023-03-25T06:38:20;96498.69;;;11.73;70.11
12973;BME280;6551;51.056;9.466;2023-03-25T06:40:47;96491.84;;;11.83;70.86
12973;BME280;6551;51.056;9.466;2023-03-25T06:43:13;96519.91;;;11.63;70.85
12973;BME280;6551;51.056;9.466;2023-03-25T06:45:39;96510.03;;;11.91;70.14
12973;BME280;6551;51.056;9.466;2023-03-25T06:48:05;96503.75;;;11.75;70.79
12973;BME280;6551;51.056;9.466;2023-03-25T06:50:31;96515.88;;;11.88;70.65
12973;BME280;6551;51.056;9.466;2023-03-25T06:52:58;96503.59;;;11.55;70.99
12973;BME280;6551;51.056;9.466;2023-03-25T06:55:24;96520.47;;;11.97;70.53
12973;BME280;6551;51.056;9.466;2023-03-25T06:57:54;96506.81;;;11.89;70.82
12973;BME280;6551;51.056;9.466;2023-03-25T07:00:21;96521.97;;;12.62;69.04
12973;BME280;6551;51.056;9.466;2023-03-25T07:02:50;96526.41;;;12.98;66.20
12973;BME280;6551;51.056;9.466;2023-03-25T07:05:17;96527.94;;;13.46;65.00
12973;BME280;6551;51.056;9.466;2023-03-25T07:07:42;96521.81;;;13.66;64.02
12973;BME280;6551;51.056;9.466;2023-03-25T07:10:12;96518.78;;;12.65;65.45
12973;BME280;6551;51.056;9.466;2023-03-25T07:12:37;96515.78;;;12.51;66.41
12973;BME280;6551;51.056;9.466;2023-03-25T07:15:07;96512.16;;;12.77;66.65
12973;BME280;6551;51.056;9.466;2023-03-25T07:17:33;96505.13;;;13.13;65.48
12973;BME280;6551;51.056;9.466;2023-03-25T07:19:59;96504.63;;;13.31;64.35
12973;BME280;6551;51.056;9.466;2023-03-25T07:22:25;96496.47;;;12.39;65.71
12973;BME280;6551;51.056;9.466;2023-03-25T07:24:51;96500.59;;;12.15;67.03
12973;BME280;6551;51.056;9.466;2023-03-25T07:27:17;96503.31;;;12.20;67.66
12973;BME280;6551;51.056;9.466;2023-03-25T07:29:42;96513.16;;;12.19;67.57
12973;BME280;6551;51.056;9.466;2023-03-25T07:32:08;96514.16;;;12.50;67.30
12973;BME280;6551;51.056;9.466;2023-03-25T07:34:34;96508.31;;;12.58;67.07
12973;BME280;6551;51.056;9.466;2023-03-25T07:37:00;96515.31;;;12.69;65.90
12973;BME280;6551;51.056;9.466;2023-03-25T07:39:27;96505.28;;;12.40;66.11
12973;BME280;6551;51.056;9.466;2023-03-25T07:41:53;96511.72;;;12.02;67.10
12973;BME280;6551;51.056;9.466;2023-03-25T07:44:20;96497.25;;;11.93;67.51
12973;BME280;6551;51.056;9.466;2023-03-25T07:46:51;96507.34;;;12.27;67.09
12973;BME280;6551;51.056;9.466;2023-03-25T07:49:17;96508.81;;;12.50;66.90
12973;BME280;6551;51.056;9.466;2023-03-25T07:51:44;96504.00;;;12.05;66.27
12973;BME280;6551;51.056;9.466;2023-03-25T07:54:11;96505.63;;;12.06;66.42
12973;BME280;6551;51.056;9.466;2023-03-25T07:56:38;96502.06;;;11.96;66.87
12973;BME280;6551;51.056;9.466;2023-03-25T07:59:04;96503.44;;;11.98;67.11
12973;BME280;6551;51.056;9.466;2023-03-25T08:01:31;96505.50;;;12.33;67.32
12973;BME280;6551;51.056;9.466;2023-03-25T08:03:57;96503.34;;;12.30;65.97
12973;BME280;6551;51.056;9.466;2023-03-25T08:06:24;96504.34;;;12.19;66.00
12973;BME280;6551;51.056;9.466;2023-03-25T08:08:51;96495.72;;;12.02;66.40
12973;BME280;6551;51.056;9.466;2023-03-25T08:11:18;96494.72;;;12.13;66.28
12973;BME280;6551;51.056;9.466;2023-03-25T08:13:47;96514.63;;;12.37;66.89
12973;BME280;6551;51.056;9.466;2023-03-25T08:16:14;96494.59;;;12.35;66.16
12973;BME280;6551;51.056;9.466;2023-03-25T08:18:40;96505.56;;;12.38;65.85
12973;BME280;6551;51.056;9.466;2023-03-25T08:21:11;96508.09;;;12.65;65.08
12973;BME280;6551;51.056;9.466;2023-03-25T08:23:37;96488.66;;;12.27;66.00
12973;BME280;6551;51.056;9.466;2023-03-25T08:26:04;96492.63;;;12.20;65.23
12973;BME280;6551;51.056;9.466;2023-03-25T08:28:30;96510.69;;;12.08;65.75
12973;BME280;6551;51.056;9.466;2023-03-25T08:30:56;96499.44;;;12.43;65.39
12973;BME280;6551;51.056;9.466;2023-03-25T08:33:25;96501.25;;;12.32;65.25
12973;BME280;6551;51.056;9.466;2023-03-25T08:36:01;96496.06;;;12.15;65.33
12973;BME280;6551;51.056;9.466;2023-03-25T08:38:28;96507.78;;;12.09;65.41
12973;BME280;6551;51.056;9.466;2023-03-25T08:40:57;96498.03;;;11.88;65.62
12973;BME280;6551;51.056;9.466;2023-03-25T08:43:25;96488.22;;;11.99;66.21
12973;BME280;6551;51.056;9.466;2023-03-25T08:45:51;96482.22;;;12.18;65.74
12973;BME280;6551;51.056;9.466;2023-03-25T08:48:19;96474.47;;;12.22;65.54
12973;BME280;6551;51.056;9.466;2023-03-25T08:50:46;96489.09;;;12.51;65.25
12973;BME280;6551;51.056;9.466;2023-03-25T08:53:11;96472.88;;;12.16;64.45
12973;BME280;6551;51.056;9.466;2023-03-25T08:55:37;96475.47;;;12.06;64.60
12973;BME280;6551;51.056;9.466;2023-03-25T08:58:04;96480.59;;;11.81;64.98
12973;BME280;6551;51.056;9.466;2023-03-25T09:00:31;96477.94;;;12.17;65.67
12973;BME280;6551;51.056;9.466;2023-03-25T09:02:57;96476.28;;;12.11;64.84
12973;BME280;6551;51.056;9.466;2023-03-25T09:05:25;96484.81;;;12.55;64.34
12973;BME280;6551;51.056;9.466;2023-03-25T09:07:53;96482.03;;;12.87;64.43
12973;BME280;6551;51.056;9.466;2023-03-25T09:10:18;96490.84;;;12.36;63.74
12973;BME280;6551;51.056;9.466;2023-03-25T09:12:45;96481.06;;;12.51;64.38
12973;BME280;6551;51.056;9.466;2023-03-25T09:15:12;96461.06;;;12.54;64.52
12973;BME280;6551;51.056;9.466;2023-03-25T09:17:39;96484.66;;;12.77;64.55
12973;BME280;6551;51.056;9.466;2023-03-25T09:20:07;96476.72;;;12.35;65.47
12973;BME280;6551;51.056;9.466;2023-03-25T09:22:35;96479.44;;;12.45;66.14
12973;BME280;6551;51.056;9.466;2023-03-25T09:25:01;96490.97;;;12.56;65.91
12973;BME280;6551;51.056;9.466;2023-03-25T09:27:27;96488.59;;;12.64;66.31
12973;BME280;6551;51.056;9.466;2023-03-25T09:29:52;96474.75;;;12.20;67.00
12973;BME280;6551;51.056;9.466;2023-03-25T09:32:20;96486.63;;;12.45;67.81
12973;BME280;6551;51.056;9.466;2023-03-25T09:34:47;96456.00;;;12.57;67.78
12973;BME280;6551;51.056;9.466;2023-03-25T09:37:14;96511.41;;;12.87;67.73
12973;BME280;6551;51.056;9.466;2023-03-25T09:39:40;96495.66;;;12.90;66.56
12973;BME280;6551;51.056;9.466;2023-03-25T09:45:41;96513.59;;;13.00;66.47
12973;BME280;6551;51.056;9.466;2023-03-25T09:48:38;96511.69;;;12.90;66.97
12973;BME280;6551;51.056;9.466;2023-03-25T09:51:29;96524.22;;;12.85;67.87
12973;BME280;6551;51.056;9.466;2023-03-25T09:56:53;96525.59;;;12.98;69.04
12973;BME280;6551;51.056;9.466;2023-03-25T09:59:22;96526.75;;;13.12;68.44
12973;BME280;6551;51.056;9.466;2023-03-25T10:08:40;96530.31;;;12.28;67.34
12973;BME280;6551;51.056;9.466;2023-03-25T10:17:39;96542.66;;;12.03;67.14
12973;BME280;6551;51.056;9.466;2023-03-25T10:23:37;96551.75;;;11.75;67.78
12973;BME280;6551;51.056;9.466;2023-03-25T10:26:29;96555.03;;;12.14;68.94
12973;BME280;6551;51.056;9.466;2023-03-25T10:29:04;96543.47;;;12.40;66.75
12973;BME280;6551;51.056;9.466;2023-03-25T10:31:37;96555.88;;;12.61;66.85
12973;BME280;6551;51.056;9.466;2023-03-25T10:34:16;96560.06;;;12.94;66.31
12973;BME280;6551;51.056;9.466;2023-03-25T10:36:53;96546.63;;;12.79;66.34
12973;BME280;6551;51.056;9.466;2023-03-25T10:39:25;96555.47;;;12.84;66.59
12973;BME280;6551;51.056;9.466;2023-03-25T10:42:23;96554.66;;;12.79;67.13
12973;BME280;6551;51.056;9.466;2023-03-25T10:44:51;96557.31;;;12.74;68.00
12973;BME280;6551;51.056;9.466;2023-03-25T10:47:23;96556.72;;;12.67;67.71
12973;BME280;6551;51.056;9.466;2023-03-25T10:49:51;96549.13;;;12.96;67.54
12973;BME280;6551;51.056;9.466;2023-03-25T10:52:19;96536.47;;;12.76;67.41
12973;BME280;6551;51.056;9.466;2023-03-25T10:54:53;96524.84;;;13.02;67.65
12973;BME280;6551;51.056;9.466;2023-03-25T10:57:27;96530.66;;;12.94;68.03
12973;BME280;6551;51.056;9.466;2023-03-25T11:00:29;96509.38;;;13.09;66.37
12973;BME280;6551;51.056;9.466;2023-03-25T11:02:55;96519.66;;;13.78;65.43
12973;BME280;6551;51.056;9.466;2023-03-25T11:05:27;96511.66;;;14.18;62.39
12973;BME280;6551;51.056;9.466;2023-03-25T11:07:59;96501.72;;;14.24;61.76
12973;BME280;6551;51.056;9.466;2023-03-25T11:10:34;96513.53;;;14.13;61.65
12973;BME280;6551;51.056;9.466;2023-03-25T11:13:01;96515.41;;;14.07;62.67
12973;BME280;6551;51.056;9.466;2023-03-25T11:15:37;96525.31;;;14.01;61.64
12973;BME280;6551;51.056;9.466;2023-03-25T11:18:34;96520.16;;;14.55;59.65
12973;BME280;6551;51.056;9.466;2023-03-25T11:21:11;96514.47;;;14.82;59.40
12973;BME280;6551;51.056;9.466;2023-03-25T11:23:47;96521.25;;;14.59;59.73
12973;BME280;6551;51.056;9.466;2023-03-25T11:26:28;96518.81;;;14.58;59.85
12973;BME280;6551;51.056;9.466;2023-03-25T11:29:08;96521.00;;;14.31;59.52
12973;BME280;6551;51.056;9.466;2023-03-25T11:31:37;96516.75;;;13.79;61.31
12973;BME280;6551;51.056;9.466;2023-03-25T11:34:20;96519.34;;;13.34;61.89
12973;BME280;6551;51.056;9.466;2023-03-25T11:39:40;96530.03;;;13.24;63.33
12973;BME280;6551;51.056;9.466;2023-03-25T11:42:30;96508.59;;;13.14;63.66
12973;BME280;6551;51.056;9.466;2023-03-25T11:45:00;96523.16;;;13.63;63.92
12973;BME280;6551;51.056;9.466;2023-03-25T11:47:35;96526.63;;;13.79;62.70
12973;BME280;6551;51.056;9.466;2023-03-25T11:50:03;96502.28;;;14.05;62.72
12973;BME280;6551;51.056;9.466;2023-03-25T11:52:45;96514.59;;;13.86;61.92
12973;BME280;6551;51.056;9.466;2023-03-25T11:55:28;96517.00;;;13.63;62.25
12973;BME280;6551;51.056;9.466;2023-03-25T11:57:57;96521.47;;;13.32;63.04
12973;BME280;6551;51.056;9.466;2023-03-25T12:03:25;96515.09;;;13.53;63.28
12973;BME280;6551;51.056;9.466;2023-03-25T12:06:20;96509.50;;;13.55;63.34
12973;BME280;6551;51.056;9.466;2023-03-25T12:08:57;96513.25;;;13.74;63.09
12973;BME280;6551;51.056;9.466;2023-03-25T12:20:59;96504.41;;;14.34;61.15
12973;BME280;6551;51.056;9.466;2023-03-25T12:23:38;96511.38;;;13.89;63.04
12973;BME280;6551;51.056;9.466;2023-03-25T12:26:18;96495.06;;;13.76;63.03
12973;BME280;6551;51.056;9.466;2023-03-25T12:41:35;96508.41;;;13.45;66.97
12973;BME280;6551;51.056;9.466;2023-03-25T12:47:04;96492.66;;;13.89;66.00
12973;BME280;6551;51.056;9.466;2023-03-25T12:50:14;96488.38;;;14.03;65.28
12973;BME280;6551;51.056;9.466;2023-03-25T13:07:33;96474.69;;;14.25;64.76
12973;BME280;6551;51.056;9.466;2023-03-25T13:10:22;96456.75;;;14.26;63.21
12973;BME280;6551;51.056;9.466;2023-03-25T13:12:57;96473.88;;;14.30;61.53
12973;BME280;6551;51.056;9.466;2023-03-25T13:24:05;96468.06;;;13.82;65.49
12973;BME280;6551;51.056;9.466;2023-03-25T13:26:34;96474.72;;;13.60;65.36
12973;BME280;6551;51.056;9.466;2023-03-25T13:29:08;96474.69;;;13.49;65.80
12973;BME280;6551;51.056;9.466;2023-03-25T13:31:40;96479.53;;;13.37;65.18
12973;BME280;6551;51.056;9.466;2023-03-25T13:34:41;96482.72;;;13.24;65.65
12973;BME280;6551;51.056;9.466;2023-03-25T13:46:01;96496.44;;;12.86;68.66
12973;BME280;6551;51.056;9.466;2023-03-25T13:49:03;96492.84;;;13.17;69.00
12973;BME280;6551;51.056;9.466;2023-03-25T13:51:31;96501.75;;;13.78;68.82
12973;BME280;6551;51.056;9.466;2023-03-25T13:54:26;96501.75;;;14.08;67.02
12973;BME280;6551;51.056;9.466;2023-03-25T14:06:57;96492.94;;;13.88;64.90
12973;BME280;6551;51.056;9.466;2023-03-25T14:12:36;96495.03;;;14.26;64.67
12973;BME280;6551;51.056;9.466;2023-03-25T14:15:42;96503.34;;;14.40;65.35
12973;BME280;6551;51.056;9.466;2023-03-25T14:18:19;96484.72;;;14.84;62.76
12973;BME280;6551;51.056;9.466;2023-03-25T14:20:48;96474.81;;;14.84;62.49
12973;BME280;6551;51.056;9.466;2023-03-25T14:23:18;96475.94;;;14.68;62.07
12973;BME280;6551;51.056;9.466;2023-03-25T14:25:55;96475.19;;;14.47;62.44
12973;BME280;6551;51.056;9.466;2023-03-25T14:28:41;96472.00;;;14.45;62.00
12973;BME280;6551;51.056;9.466;2023-03-25T14:31:24;96485.91;;;14.57;62.60
12973;BME280;6551;51.056;9.466;2023-03-25T14:36:30;96496.75;;;14.91;61.73
12973;BME280;6551;51.056;9.466;2023-03-25T14:39:00;96518.50;;;14.75;62.57
12973;BME280;6551;51.056;9.466;2023-03-25T14:44:41;96534.72;;;13.07;65.23
12973;BME280;6551;51.056;9.466;2023-03-25T14:53:00;96499.59;;;13.70;66.46
12973;BME280;6551;51.056;9.466;2023-03-25T14:55:32;96497.19;;;13.64;66.51
12973;BME280;6551;51.056;9.466;2023-03-25T14:58:25;96482.47;;;13.66;66.44
12973;BME280;6551;51.056;9.466;2023-03-25T15:00:59;96492.41;;;13.66;65.77
12973;BME280;6551;51.056;9.466;2023-03-25T15:03:34;96474.72;;;13.55;64.85
12973;BME280;6551;51.056;9.466;2023-03-25T15:06:01;96474.44;;;13.61;64.60
12973;BME280;6551;51.056;9.466;2023-03-25T15:08:40;96472.31;;;13.93;64.07
12973;BME280;6551;51.056;9.466;2023-03-25T15:11:13;96460.28;;;13.71;63.42
12973;BME280;6551;51.056;9.466;2023-03-25T15:13:50;96470.44;;;13.89;63.66
12973;BME280;6551;51.056;9.466;2023-03-25T15:16:37;96469.63;;;13.88;64.00
12973;BME280;6551;51.056;9.466;2023-03-25T15:19:12;96465.09;;;13.79;63.46
12973;BME280;6551;51.056;9.466;2023-03-25T15:24:32;96455.72;;;13.81;63.62
12973;BME280;6551;51.056;9.466;2023-03-25T15:34:02;96462.41;;;13.89;63.49
12973;BME280;6551;51.056;9.466;2023-03-25T15:40:46;96467.22;;;13.67;62.61
12973;BME280;6551;51.056;9.466;2023-03-25T15:43:42;96468.03;;;13.62;62.83
12973;BME280;6551;51.056;9.466;2023-03-25T15:53:22;96468.00;;;13.32;65.72
12973;BME280;6551;51.056;9.466;2023-03-25T15:56:05;96468.56;;;13.54;64.45
12973;BME280;6551;51.056;9.466;2023-03-25T15:59:04;96470.44;;;13.89;64.04
12973;BME280;6551;51.056;9.466;2023-03-25T16:01:35;96479.56;;;13.88;63.12
12973;BME280;6551;51.056;9.466;2023-03-25T16:04:44;96510.03;;;13.72;64.01
12973;BME280;6551;51.056;9.466;2023-03-25T16:07:15;96550.22;;;14.02;64.48
12973;BME280;6551;51.056;9.466;2023-03-25T16:09:47;96573.34;;;13.31;66.58
12973;BME280;6551;51.056;9.466;2023-03-25T16:12:24;96565.84;;;13.28;65.63
12973;BME280;6551;51.056;9.466;2023-03-25T16:14:51;96553.84;;;12.78;66.95
12973;BME280;6551;51.056;9.466;2023-03-25T16:17:21;96543.09;;;12.21;68.75
12973;BME280;6551;51.056;9.466;2023-03-25T16:19:54;96539.13;;;12.29;69.64
12973;BME280;6551;51.056;9.466;2023-03-25T16:22:33;96518.28;;;12.26;67.88
12973;BME280;6551;51.056;9.466;2023-03-25T16:25:12;96511.06;;;12.21;68.06